Time;durP1;ratioP1;P1;durP2;ratioP2;P2;SDS_P1;SDS_P2;PMS_P1;PMS_P2;Temp;Humidity;BMP_temperature;BMP_pressure;BME280_temperature;BME280_humidity;BME280_pressure;Samples;Min_cycle;Max_cycle;Signal;HPM_P1;HPM_P2
2021/09/19 00:01:49;;;;;;;4.25;2.20;;;24.30;58.60;;;;;;4167770;28;20076;-42
2021/09/19 00:03:51;;;;;;;2.13;1.92;;;24.30;58.40;;;;;;4167663;28;20073;-44
2021/09/19 00:05:53;;;;;;;2.80;2.10;;;24.30;58.50;;;;;;4150623;28;20047;-43
2021/09/19 00:07:55;;;;;;;3.72;2.55;;;24.30;58.50;;;;;;4167666;28;20093;-43
2021/09/19 00:09:57;;;;;;;3.70;2.50;;;24.30;58.10;;;;;;4167677;28;20038;-44
2021/09/19 00:11:59;;;;;;;3.03;2.55;;;24.30;58.20;;;;;;4167523;28;20048;-42
2021/09/19 00:14:01;;;;;;;3.60;3.03;;;24.30;58.10;;;;;;4167645;28;20042;-42
2021/09/19 00:16:04;;;;;;;4.50;3.50;;;24.30;58.10;;;;;;4150463;28;20069;-43
2021/09/19 00:18:06;;;;;;;3.08;2.58;;;24.30;57.80;;;;;;4167544;28;20042;-43
2021/09/19 00:20:09;;;;;;;4.03;2.30;;;24.20;58.00;;;;;;4167538;28;20458;-43
2021/09/19 00:22:11;;;;;;;3.05;2.25;;;24.20;58.00;;;;;;4167512;28;20073;-44
2021/09/19 00:24:13;;;;;;;3.83;2.50;;;24.20;57.90;;;;;;4167344;28;20038;-42
2021/09/19 00:26:15;;;;;;;2.70;2.33;;;24.20;57.90;;;;;;4167325;28;20050;-42
2021/09/19 00:28:17;;;;;;;2.35;2.15;;;24.20;57.90;;;;;;4167369;28;20072;-43
2021/09/19 00:30:19;;;;;;;4.80;2.75;;;24.20;57.80;;;;;;4167384;28;20038;-45
2021/09/19 00:32:21;;;;;;;4.75;2.65;;;24.20;57.70;;;;;;4167203;28;20049;-43
2021/09/19 00:34:23;;;;;;;3.58;2.42;;;24.30;57.60;;;;;;4167334;28;20042;-42
2021/09/19 00:36:25;;;;;;;2.97;2.50;;;24.20;57.70;;;;;;4167168;28;20092;-42
2021/09/19 00:38:27;;;;;;;4.97;2.55;;;24.20;57.60;;;;;;4167181;28;20056;-43
2021/09/19 00:40:29;;;;;;;4.13;3.08;;;24.20;57.60;;;;;;4167129;28;20097;-42
2021/09/19 00:42:31;;;;;;;4.05;2.38;;;24.20;57.50;;;;;;4167136;28;20150;-43
2021/09/19 00:44:34;;;;;;;3.25;2.90;;;24.20;57.50;;;;;;4150018;28;20110;-43
2021/09/19 00:46:37;;;;;;;2.92;2.63;;;24.20;57.50;;;;;;4149072;28;20118;-42
2021/09/19 00:48:39;;;;;;;5.50;2.90;;;24.20;57.40;;;;;;4166928;28;20038;-43
2021/09/19 00:50:41;;;;;;;2.92;2.70;;;24.20;57.20;;;;;;4166995;28;20574;-44
2021/09/19 00:52:45;;;;;;;3.60;2.65;;;24.20;57.30;;;;;;4166835;28;20099;-48
2021/09/19 00:54:49;;;;;;;3.13;2.63;;;24.20;57.20;;;;;;4167001;28;20042;-47
2021/09/19 00:56:54;;;;;;;5.93;2.95;;;24.20;57.20;;;;;;4166853;28;20117;-48
2021/09/19 00:58:57;;;;;;;2.95;2.65;;;24.20;57.20;;;;;;4166890;28;20046;-47
2021/09/19 01:01:00;;;;;;;4.60;3.15;;;24.20;57.10;;;;;;4149773;28;20125;-42
2021/09/19 01:03:03;;;;;;;3.42;3.13;;;24.20;57.10;;;;;;4166818;28;20050;-45
2021/09/19 01:05:07;;;;;;;4.78;3.40;;;24.20;56.90;;;;;;4166709;28;20068;-43
2021/09/19 01:07:10;;;;;;;3.85;3.28;;;24.20;56.80;;;;;;4166573;28;20073;-45
2021/09/19 01:09:12;;;;;;;4.45;3.08;;;24.20;56.80;;;;;;4166711;28;20046;-43
2021/09/19 01:11:16;;;;;;;4.50;2.95;;;24.20;56.70;;;;;;4166604;28;20048;-45
2021/09/19 01:13:18;;;;;;;4.60;4.05;;;24.20;56.80;;;;;;4166610;28;20527;-44
2021/09/19 01:15:21;;;;;;;4.63;3.45;;;24.20;56.60;;;;;;4166550;28;20073;-43
2021/09/19 01:17:24;;;;;;;5.53;3.90;;;24.10;56.60;;;;;;4166594;28;20099;-43
2021/09/19 01:19:26;;;;;;;6.28;4.90;;;24.20;56.40;;;;;;4166496;28;20105;-43
2021/09/19 01:21:28;;;;;;;3.72;3.17;;;24.20;56.00;;;;;;4166446;28;20101;-42
2021/09/19 01:23:31;;;;;;;7.78;5.10;;;24.20;56.50;;;;;;4166369;28;20103;-42
2021/09/19 01:25:33;;;;;;;4.47;4.07;;;24.20;56.10;;;;;;4166462;28;20105;-42
2021/09/19 01:27:36;;;;;;;7.03;4.22;;;24.20;56.40;;;;;;4166314;28;20129;-42
2021/09/19 01:29:38;;;;;;;3.90;3.00;;;24.20;56.20;;;;;;4166322;28;20042;-44
2021/09/19 01:31:40;;;;;;;4.07;3.20;;;24.20;56.40;;;;;;4166444;28;20049;-44
2021/09/19 01:33:43;;;;;;;4.38;3.90;;;24.20;56.40;;;;;;4166468;28;20482;-43
2021/09/19 01:35:44;;;;;;;3.83;3.30;;;24.20;56.20;;;;;;4166437;28;20098;-42
2021/09/19 01:37:47;;;;;;;5.85;4.28;;;24.20;56.60;;;;;;4166458;28;20069;-43
2021/09/19 01:39:49;;;;;;;5.30;3.70;;;24.20;56.40;;;;;;4166337;28;20102;-44
2021/09/19 01:41:51;;;;;;;4.75;3.80;;;24.20;56.40;;;;;;4149328;28;20057;-43
2021/09/19 01:43:56;;;;;;;4.05;3.47;;;24.20;56.20;;;;;;4166300;28;20060;-44
2021/09/19 01:46:03;;;;;;;3.40;2.92;;;24.20;56.30;;;;;;4166361;28;20060;-43
2021/09/19 01:48:05;;;;;;;4.55;3.60;;;24.20;56.10;;;;;;4166333;28;20041;-44
2021/09/19 01:50:08;;;;;;;3.80;3.33;;;24.20;56.20;;;;;;4166222;28;20068;-44
2021/09/19 01:52:10;;;;;;;4.50;2.90;;;24.20;56.20;;;;;;4166349;28;20038;-43
2021/09/19 01:54:13;;;;;;;3.72;3.08;;;24.20;56.30;;;;;;4166211;28;20098;-44
2021/09/19 01:56:15;;;;;;;4.47;3.92;;;24.20;56.10;;;;;;4165382;28;20049;-46
2021/09/19 01:58:17;;;;;;;5.82;4.18;;;24.20;56.10;;;;;;4167922;28;20076;-48
2021/09/19 02:00:21;;;;;;;4.03;3.15;;;24.20;56.10;;;;;;4169640;28;20101;-44
2021/09/19 02:02:24;;;;;;;3.83;3.42;;;24.20;56.20;;;;;;4169551;28;20054;-43
2021/09/19 02:04:27;;;;;;;4.95;3.83;;;24.20;56.30;;;;;;4169451;28;20056;-43
2021/09/19 02:06:29;;;;;;;4.57;2.97;;;24.20;56.00;;;;;;4169395;28;20052;-45
2021/09/19 02:08:35;;;;;;;5.88;3.85;;;24.20;56.20;;;;;;4169495;28;20042;-49
2021/09/19 02:10:37;;;;;;;6.63;3.20;;;24.20;56.00;;;;;;4169456;28;20101;-48
2021/09/19 02:12:41;;;;;;;5.43;3.80;;;24.20;56.10;;;;;;4169403;28;20038;-49
2021/09/19 02:14:44;;;;;;;4.43;3.08;;;24.20;56.10;;;;;;4169449;28;20463;-43
2021/09/19 02:16:46;;;;;;;5.15;3.58;;;24.20;56.20;;;;;;4169326;28;20060;-42
2021/09/19 02:18:49;;;;;;;6.50;3.35;;;24.20;56.10;;;;;;4169374;28;20041;-43
2021/09/19 02:20:51;;;;;;;7.45;3.30;;;24.20;56.40;;;;;;4169276;28;20061;-43
2021/09/19 02:22:53;;;;;;;4.50;3.42;;;24.10;56.30;;;;;;4169309;28;20097;-44
2021/09/19 02:24:55;;;;;;;3.70;3.28;;;24.20;56.20;;;;;;4169241;28;20042;-43
2021/09/19 02:26:57;;;;;;;4.60;4.20;;;24.20;56.30;;;;;;4169132;28;20042;-43
2021/09/19 02:28:59;;;;;;;3.53;2.80;;;24.10;56.00;;;;;;4169199;28;20453;-43
2021/09/19 02:31:02;;;;;;;3.17;2.88;;;24.10;56.30;;;;;;4169154;28;20117;-47
2021/09/19 02:33:04;;;;;;;3.63;3.10;;;24.10;56.20;;;;;;4169070;28;20102;-50
2021/09/19 02:35:08;;;;;;;4.93;4.03;;;24.20;56.30;;;;;;4168691;28;20064;-50
2021/09/19 02:37:10;;;;;;;4.60;3.67;;;24.20;55.90;;;;;;4168673;28;20052;-49
2021/09/19 02:39:12;;;;;;;5.10;4.50;;;24.10;56.00;;;;;;4168697;28;20046;-50
2021/09/19 02:41:14;;;;;;;4.18;3.78;;;24.20;55.70;;;;;;4168781;28;20069;-49
2021/09/19 02:43:17;;;;;;;5.43;4.18;;;24.20;55.80;;;;;;4168665;28;20042;-50
2021/09/19 02:45:19;;;;;;;5.85;3.40;;;24.20;55.80;;;;;;4168939;28;20048;-47
2021/09/19 02:47:21;;;;;;;4.85;4.22;;;24.10;56.00;;;;;;4168731;28;20058;-49
2021/09/19 02:49:23;;;;;;;6.57;3.03;;;24.10;55.80;;;;;;4168883;28;20043;-49
2021/09/19 02:51:25;;;;;;;3.42;3.08;;;24.10;56.10;;;;;;4168790;28;20041;-48
2021/09/19 02:53:27;;;;;;;3.15;2.67;;;24.10;56.00;;;;;;4168823;28;20040;-48
2021/09/19 02:55:29;;;;;;;3.78;3.25;;;24.10;56.20;;;;;;4168793;28;20038;-48
2021/09/19 02:57:31;;;;;;;3.20;2.90;;;24.10;55.80;;;;;;4168751;28;20052;-49
2021/09/19 02:59:34;;;;;;;3.20;2.63;;;24.10;55.80;;;;;;4168624;28;20053;-45
2021/09/19 03:01:36;;;;;;;5.18;4.00;;;24.00;56.00;;;;;;4168650;28;20097;-43
2021/09/19 03:03:38;;;;;;;3.28;2.97;;;24.00;55.50;;;;;;4168589;28;20042;-48
2021/09/19 03:05:40;;;;;;;4.03;2.92;;;24.00;55.80;;;;;;4168582;28;20053;-49
2021/09/19 03:07:43;;;;;;;3.85;3.45;;;24.00;55.80;;;;;;4168511;28;20048;-47
2021/09/19 03:09:45;;;;;;;4.68;3.55;;;24.00;55.40;;;;;;4166901;28;20065;-46
2021/09/19 03:11:47;;;;;;;3.80;3.50;;;24.00;55.40;;;;;;4168511;28;20043;-47
2021/09/19 03:13:49;;;;;;;4.10;3.60;;;24.00;55.50;;;;;;4168452;28;20117;-47
2021/09/19 03:15:51;;;;;;;3.13;2.83;;;24.00;55.30;;;;;;4168321;28;20065;-49
2021/09/19 03:17:53;;;;;;;4.05;3.05;;;24.00;55.40;;;;;;4168362;28;20072;-49
2021/09/19 03:19:55;;;;;;;3.97;3.05;;;24.00;55.30;;;;;;4167545;28;20050;-47
2021/09/19 03:21:57;;;;;;;3.25;2.92;;;24.00;55.20;;;;;;4168331;28;20042;-46
2021/09/19 03:23:59;;;;;;;3.33;2.95;;;24.00;55.20;;;;;;4168202;28;20041;-48
2021/09/19 03:26:02;;;;;;;3.35;3.05;;;24.00;55.20;;;;;;4168295;28;20063;-45
2021/09/19 03:28:04;;;;;;;5.47;3.42;;;24.00;54.90;;;;;;4167274;28;20106;-47
2021/09/19 03:30:08;;;;;;;3.17;2.70;;;24.00;55.10;;;;;;4168046;28;20098;-47
2021/09/19 03:32:10;;;;;;;;;;;24.00;55.10;;;;;;4168343;28;20037;-49
2021/09/19 03:34:13;;;;;;;2.75;2.55;;;24.00;54.90;;;;;;4168123;28;19921;-45
2021/09/19 03:36:15;;;;;;;4.10;3.30;;;24.00;55.00;;;;;;4168002;28;20105;-47
2021/09/19 03:38:17;;;;;;;4.53;3.55;;;24.00;55.00;;;;;;4168075;28;20045;-45
2021/09/19 03:40:19;;;;;;;4.57;3.58;;;24.00;54.70;;;;;;4168084;28;20101;-49
2021/09/19 03:42:21;;;;;;;3.15;2.85;;;24.00;54.80;;;;;;4168000;28;20449;-47
2021/09/19 03:44:23;;;;;;;5.05;2.97;;;24.00;54.90;;;;;;4167895;28;20069;-46
2021/09/19 03:46:28;;;;;;;4.80;2.83;;;24.00;54.90;;;;;;4167698;28;20057;-44
2021/09/19 03:48:30;;;;;;;5.53;3.03;;;24.00;54.80;;;;;;4167815;28;20068;-49
2021/09/19 03:50:32;;;;;;;3.60;2.85;;;24.00;54.90;;;;;;4150713;28;20050;-49
2021/09/19 03:52:34;;;;;;;4.57;2.80;;;24.00;54.80;;;;;;4167727;28;20116;-48
2021/09/19 03:54:36;;;;;;;5.60;3.00;;;24.00;54.80;;;;;;4167665;28;20038;-47
2021/09/19 03:56:38;;;;;;;3.72;3.20;;;23.90;54.80;;;;;;4167473;28;20038;-49
2021/09/19 03:58:40;;;;;;;7.60;2.85;;;23.90;54.60;;;;;;4167481;28;20069;-48
2021/09/19 04:00:42;;;;;;;4.03;2.38;;;24.00;54.80;;;;;;4167540;28;20101;-46
2021/09/19 04:02:45;;;;;;;3.42;2.67;;;24.00;54.70;;;;;;4167559;28;20158;-47
2021/09/19 04:04:47;;;;;;;4.03;2.85;;;24.00;54.70;;;;;;4167419;28;20053;-46
2021/09/19 04:06:49;;;;;;;2.70;2.50;;;24.00;54.80;;;;;;4167351;28;20060;-47
2021/09/19 04:08:51;;;;;;;3.17;2.72;;;23.90;54.70;;;;;;4167473;28;20476;-48
2021/09/19 04:10:53;;;;;;;4.68;2.70;;;23.90;54.70;;;;;;4167468;28;20065;-49
2021/09/19 04:12:55;;;;;;;2.88;2.53;;;23.90;54.60;;;;;;4150386;28;20047;-49
2021/09/19 04:14:57;;;;;;;2.80;2.35;;;23.90;54.60;;;;;;4167360;28;20097;-45
2021/09/19 04:17:00;;;;;;;2.95;2.42;;;23.90;54.50;;;;;;4167434;28;20038;-45
2021/09/19 04:19:03;;;;;;;3.55;2.38;;;23.90;54.60;;;;;;4167241;28;20072;-48
2021/09/19 04:21:05;;;;;;;3.58;2.25;;;23.90;54.50;;;;;;4166492;28;20110;-47
2021/09/19 04:23:07;;;;;;;2.40;1.92;;;23.90;54.50;;;;;;4166872;28;20049;-46
2021/09/19 04:25:10;;;;;;;4.40;2.45;;;23.90;54.40;;;;;;4167205;28;20105;-44
2021/09/19 04:27:12;;;;;;;2.70;2.30;;;23.90;54.40;;;;;;4167126;28;20065;-45
2021/09/19 04:29:14;;;;;;;2.25;2.05;;;23.90;54.50;;;;;;4150006;28;20046;-46
2021/09/19 04:31:16;;;;;;;3.13;1.90;;;23.90;54.60;;;;;;4149873;28;20125;-46
2021/09/19 04:33:18;;;;;;;5.45;2.15;;;23.90;54.50;;;;;;4167203;28;20042;-44
2021/09/19 04:35:20;;;;;;;2.45;2.03;;;23.90;54.50;;;;;;4167159;28;20070;-45
2021/09/19 04:37:22;;;;;;;3.17;2.00;;;23.90;54.50;;;;;;4149991;28;20042;-47
2021/09/19 04:39:24;;;;;;;2.47;2.03;;;23.90;54.60;;;;;;4167053;28;20487;-47
2021/09/19 04:41:26;;;;;;;2.28;1.88;;;23.90;54.50;;;;;;4166852;28;20042;-45
2021/09/19 04:43:28;;;;;;;2.67;1.85;;;23.90;54.50;;;;;;4166798;28;20038;-46
2021/09/19 04:45:30;;;;;;;2.63;1.75;;;23.90;54.50;;;;;;4166882;28;20072;-46
2021/09/19 04:47:32;;;;;;;2.03;1.80;;;23.90;54.50;;;;;;4149506;28;20071;-45
2021/09/19 04:49:35;;;;;;;3.08;1.60;;;23.90;54.50;;;;;;4150434;28;20038;-45
2021/09/19 04:51:37;;;;;;;1.73;1.63;;;23.90;54.40;;;;;;4150365;28;20046;-44
2021/09/19 04:53:39;;;;;;;3.00;2.03;;;23.90;54.40;;;;;;4150462;28;20117;-45
2021/09/19 04:55:41;;;;;;;2.58;2.00;;;23.90;54.30;;;;;;4150454;28;20039;-46
2021/09/19 04:57:43;;;;;;;1.60;1.50;;;23.90;54.30;;;;;;4150453;28;20046;-45
2021/09/19 04:59:45;;;;;;;1.83;1.65;;;23.90;54.30;;;;;;4150377;28;20102;-45
2021/09/19 05:01:47;;;;;;;1.60;1.50;;;23.90;54.10;;;;;;4150292;28;20435;-48
2021/09/19 05:03:49;;;;;;;3.08;1.92;;;23.90;54.00;;;;;;4150373;28;20072;-48
2021/09/19 05:05:51;;;;;;;1.95;1.75;;;23.90;54.00;;;;;;4150304;28;20098;-48
2021/09/19 05:07:53;;;;;;;18.92;2.22;;;23.90;53.90;;;;;;4150202;28;20073;-45
2021/09/19 05:09:55;;;;;;;3.80;1.83;;;23.90;54.20;;;;;;4133525;28;20039;-44
2021/09/19 05:11:57;;;;;;;6.28;2.10;;;23.90;54.00;;;;;;4150408;28;20098;-44
2021/09/19 05:13:59;;;;;;;1.70;1.60;;;23.90;53.90;;;;;;4150399;28;20399;-44
2021/09/19 05:16:01;;;;;;;2.20;2.00;;;23.90;53.80;;;;;;4150310;28;20056;-42
2021/09/19 05:18:03;;;;;;;4.18;1.67;;;23.90;53.70;;;;;;4150350;28;20390;-46
2021/09/19 05:20:06;;;;;;;1.65;1.50;;;23.90;53.80;;;;;;4150254;28;20046;-44
2021/09/19 05:22:08;;;;;;;2.28;1.42;;;23.90;53.70;;;;;;4150318;28;20103;-43
2021/09/19 05:24:10;;;;;;;2.53;1.52;;;23.90;53.70;;;;;;4150221;28;20068;-44
2021/09/19 05:26:15;;;;;;;2.30;1.65;;;23.90;53.60;;;;;;4150202;28;20048;-44
2021/09/19 05:28:21;;;;;;;3.88;1.50;;;23.90;53.60;;;;;;4150189;28;20042;-44
2021/09/19 05:30:23;;;;;;;1.80;1.70;;;23.90;53.60;;;;;;4150333;28;20038;-45
2021/09/19 05:32:26;;;;;;;2.50;1.75;;;23.90;53.50;;;;;;4149927;28;20046;-44
2021/09/19 05:34:31;;;;;;;3.10;1.63;;;23.90;53.30;;;;;;4150089;28;20065;-44
2021/09/19 05:36:33;;;;;;;2.25;1.70;;;23.90;53.50;;;;;;4150019;28;20073;-42
2021/09/19 05:38:35;;;;;;;1.95;1.67;;;23.90;53.40;;;;;;4150153;28;20046;-41
2021/09/19 05:40:41;;;;;;;1.50;1.40;;;23.90;53.20;;;;;;4150117;28;20052;-44
2021/09/19 05:42:43;;;;;;;1.98;1.42;;;23.90;53.20;;;;;;4150073;28;20081;-43
2021/09/19 05:44:52;;;;;;;2.90;1.50;;;23.90;53.30;;;;;;4149153;28;20039;-43
2021/09/19 05:46:55;;;;;;;2.10;1.80;;;23.90;53.30;;;;;;4157012;28;20062;-43
2021/09/19 05:49:02;;;;;;;1.30;1.20;;;23.90;53.10;;;;;;4166147;28;20042;-44
2021/09/19 05:51:12;;;;;;;2.22;2.03;;;23.90;53.20;;;;;;4165886;28;20065;-43
2021/09/19 05:53:33;;;;;;;2.03;1.48;;;23.90;53.10;;;;;;4166130;28;20046;-43
2021/09/19 05:55:47;;;;;;;2.05;1.73;;;23.90;53.00;;;;;;4166163;28;20061;-43
2021/09/19 05:58:23;;;;;;;2.05;1.55;;;23.90;53.00;;;;;;4165143;28;20511;-42
2021/09/19 06:00:26;;;;;;;1.35;1.20;;;23.90;53.00;;;;;;4166262;28;20072;-43
2021/09/19 06:02:45;;;;;;;3.28;2.55;;;23.90;52.90;;;;;;4165092;28;20058;-43
2021/09/19 06:08:11;;;;;;;1.58;1.42;;;23.90;52.70;;;;;;4165970;28;20093;-42
2021/09/19 06:10:13;;;;;;;3.00;1.50;;;23.90;52.70;;;;;;4148986;28;20038;-43
2021/09/19 06:12:15;;;;;;;2.85;1.60;;;23.90;52.60;;;;;;4166055;28;20072;-45
2021/09/19 06:14:17;;;;;;;2.45;2.00;;;23.90;52.50;;;;;;4166068;28;20057;-42
2021/09/19 06:16:19;;;;;;;1.67;1.33;;;23.90;52.40;;;;;;4165862;28;20098;-45
2021/09/19 06:18:22;;;;;;;1.50;1.30;;;23.90;52.40;;;;;;4165731;28;20072;-43
2021/09/19 06:20:24;;;;;;;2.28;1.45;;;23.90;52.60;;;;;;4148751;28;20046;-43
2021/09/19 06:22:27;;;;;;;9.35;1.60;;;23.90;52.50;;;;;;4165941;28;20038;-48
2021/09/19 06:24:30;;;;;;;4.88;2.08;;;23.90;52.50;;;;;;4165033;28;20260;-45
2021/09/19 06:26:32;;;;;;;4.10;2.27;;;23.90;53.00;;;;;;4165173;28;20101;-44
2021/09/19 06:28:34;;;;;;;10.85;2.80;;;23.80;52.80;;;;;;4165075;28;20052;-53
2021/09/19 06:30:36;;;;;;;4.80;3.03;;;23.80;53.20;;;;;;4163809;28;20042;-44
2021/09/19 06:32:39;;;;;;;5.65;1.90;;;23.80;53.90;;;;;;4165833;28;20072;-50
2021/09/19 06:34:41;;;;;;;4.57;2.30;;;23.80;52.80;;;;;;4165602;28;20049;-50
2021/09/19 06:36:43;;;;;;;9.48;2.63;;;23.80;53.00;;;;;;4165059;28;20041;-47
2021/09/19 06:38:45;;;;;;;4.47;2.10;;;23.80;52.60;;;;;;4165923;28;20050;-48
2021/09/19 06:40:47;;;;;;;3.05;1.90;;;23.80;52.40;;;;;;4164736;28;20101;-51
2021/09/19 06:42:49;;;;;;;4.88;2.47;;;23.80;52.20;;;;;;4163201;28;20097;-52
2021/09/19 06:44:51;;;;;;;4.82;2.35;;;23.80;52.20;;;;;;4164231;28;20046;-55
2021/09/19 06:46:56;;;;;;;5.13;2.83;;;23.80;52.00;;;;;;4166969;28;20058;-54
2021/09/19 06:48:58;;;;;;;4.97;2.70;;;23.90;52.50;;;;;;4166963;28;20073;-53
2021/09/19 06:51:00;;;;;;;10.05;2.33;;;23.80;52.40;;;;;;4161200;28;20066;-55
2021/09/19 06:53:02;;;;;;;5.47;2.15;;;23.80;52.30;;;;;;4150620;28;20098;-52
2021/09/19 06:55:05;;;;;;;4.45;2.60;;;23.80;51.40;;;;;;4150649;28;20066;-56
2021/09/19 06:57:07;;;;;;;3.22;2.05;;;23.80;52.10;;;;;;4151020;28;20043;-52
2021/09/19 06:59:09;;;;;;;3.03;2.25;;;23.80;51.60;;;;;;4151314;28;20042;-49
2021/09/19 07:01:11;;;;;;;3.72;2.10;;;23.80;52.40;;;;;;4152505;28;20057;-49
2021/09/19 07:03:13;;;;;;;4.55;2.50;;;23.80;52.50;;;;;;4152494;28;20046;-53
2021/09/19 07:05:15;;;;;;;5.53;2.28;;;23.80;52.10;;;;;;4152436;28;20116;-49
2021/09/19 07:07:18;;;;;;;4.03;1.60;;;23.70;52.00;;;;;;4152400;28;20101;-48
2021/09/19 07:09:20;;;;;;;1.70;1.60;;;23.80;51.80;;;;;;4151330;28;20046;-56
2021/09/19 07:11:22;;;;;;;4.15;2.25;;;23.80;51.70;;;;;;4150254;28;20055;-56
2021/09/19 07:13:24;;;;;;;6.00;2.45;;;23.80;51.70;;;;;;4151013;28;20121;-55
2021/09/19 07:15:26;;;;;;;2.28;2.08;;;23.80;51.90;;;;;;4150055;28;20107;-57
2021/09/19 07:17:28;;;;;;;4.43;2.30;;;23.80;51.60;;;;;;4150831;28;20042;-57
2021/09/19 07:19:30;;;;;;;4.45;2.33;;;23.70;52.30;;;;;;4150766;28;20050;-57
2021/09/19 07:21:33;;;;;;;2.55;2.00;;;23.80;51.80;;;;;;4150896;28;20164;-57
2021/09/19 07:23:35;;;;;;;6.45;3.03;;;23.80;52.40;;;;;;4158222;28;20038;-47
2021/09/19 07:25:37;;;;;;;3.20;2.25;;;23.80;52.40;;;;;;4166324;28;20056;-58
2021/09/19 07:27:40;;;;;;;5.07;3.00;;;23.70;52.80;;;;;;4167141;28;20097;-57
2021/09/19 07:29:42;;;;;;;5.50;2.78;;;23.70;52.70;;;;;;4166859;28;20042;-57
2021/09/19 07:31:47;;;;;;;4.28;1.95;;;23.70;52.40;;;;;;4166736;28;20109;-57
2021/09/19 07:33:50;;;;;;;;;;;23.70;51.90;;;;;;4167323;28;20045;-57
2021/09/19 07:35:53;;;;;;;5.88;2.67;;;23.70;52.10;;;;;;4166941;28;19921;-57
2021/09/19 07:37:55;;;;;;;8.57;3.10;;;23.70;52.30;;;;;;4166959;28;20045;-56
2021/09/19 07:39:57;;;;;;;8.30;2.25;;;23.70;51.90;;;;;;4166811;28;20105;-60
2021/09/19 07:41:59;;;;;;;3.05;1.98;;;23.80;51.70;;;;;;4166635;28;20065;-61
2021/09/19 07:44:02;;;;;;;5.00;2.85;;;23.70;51.50;;;;;;4166451;28;20463;-61
2021/09/19 07:46:04;;;;;;;6.55;2.45;;;23.80;51.90;;;;;;4166595;28;20065;-59
2021/09/19 07:48:13;;;;;;;5.90;2.22;;;23.70;52.00;;;;;;4166903;28;20110;-61
2021/09/19 07:50:15;;;;;;;8.50;4.18;;;23.70;51.70;;;;;;4149762;28;20134;-61
2021/09/19 07:52:18;;;;;;;7.20;3.45;;;23.70;52.00;;;;;;4166818;28;20061;-61
2021/09/19 07:54:21;;;;;;;9.73;2.72;;;23.80;52.20;;;;;;4149429;28;20058;-61
2021/09/19 07:56:22;;;;;;;6.43;2.70;;;23.80;51.90;;;;;;4166162;28;20106;-61
2021/09/19 07:58:25;;;;;;;5.57;3.25;;;23.70;51.40;;;;;;4165061;28;20044;-61
2021/09/19 08:00:27;;;;;;;7.88;2.85;;;23.80;52.50;;;;;;4164877;28;20061;-61
2021/09/19 08:02:29;;;;;;;6.38;3.10;;;23.70;52.00;;;;;;4165616;28;20057;-61
2021/09/19 08:04:31;;;;;;;6.65;3.40;;;23.70;52.10;;;;;;4165719;28;20062;-61
2021/09/19 08:06:34;;;;;;;13.77;5.30;;;23.70;52.80;;;;;;4165538;28;20074;-60
2021/09/19 08:08:36;;;;;;;7.03;4.28;;;23.70;53.20;;;;;;4165371;28;20049;-61
2021/09/19 08:10:38;;;;;;;7.90;3.05;;;23.70;52.00;;;;;;4165856;28;20046;-61
2021/09/19 08:12:41;;;;;;;8.68;2.90;;;23.70;51.70;;;;;;4166073;28;20065;-60
2021/09/19 08:14:44;;;;;;;7.47;2.67;;;23.70;51.00;;;;;;4166163;28;20044;-61
2021/09/19 08:16:46;;;;;;;14.50;3.72;;;23.70;51.10;;;;;;4165082;28;20076;-59
2021/09/19 08:18:47;;;;;;;12.30;2.53;;;23.70;51.00;;;;;;4164567;28;20038;-57
2021/09/19 08:20:50;;;;;;;9.73;3.90;;;23.70;51.10;;;;;;4164756;28;20041;-57
2021/09/19 08:22:52;;;;;;;9.48;2.22;;;23.90;51.20;;;;;;4164837;28;20661;-57
2021/09/19 08:24:54;;;;;;;4.13;1.85;;;23.90;51.00;;;;;;4164931;28;20049;-57
2021/09/19 08:26:56;;;;;;;8.35;1.83;;;23.90;51.00;;;;;;4164951;28;20077;-57
2021/09/19 08:28:58;;;;;;;7.32;1.70;;;23.90;51.00;;;;;;4163210;28;20096;-57
2021/09/19 08:31:00;;;;;;;1.90;1.50;;;23.90;51.00;;;;;;4164597;28;20049;-57
2021/09/19 08:33:02;;;;;;;4.75;1.80;;;24.00;51.00;;;;;;4164649;28;20411;-57
2021/09/19 08:35:05;;;;;;;7.57;2.53;;;24.00;51.00;;;;;;4164628;28;20101;-47
2021/09/19 08:37:07;;;;;;;5.45;1.77;;;24.00;50.80;;;;;;4164761;28;20058;-52
2021/09/19 08:39:09;;;;;;;6.43;2.28;;;23.90;50.80;;;;;;4164814;28;20125;-50
2021/09/19 08:41:15;;;;;;;5.97;2.50;;;23.90;51.00;;;;;;4164324;28;20041;-52
2021/09/19 08:43:18;;;;;;;6.22;3.03;;;23.90;51.60;;;;;;4164674;28;20475;-52
2021/09/19 08:45:22;;;;;;;8.52;2.85;;;23.90;52.20;;;;;;4147459;28;20105;-52
2021/09/19 08:47:28;;;;;;;9.45;2.67;;;23.90;51.40;;;;;;4164358;28;20076;-52
2021/09/19 08:49:31;;;;;;;6.55;2.78;;;23.80;51.80;;;;;;4164470;28;20097;-51
2021/09/19 08:51:33;;;;;;;9.68;3.25;;;23.90;52.90;;;;;;4164539;28;20105;-51
2021/09/19 08:53:35;;;;;;;11.60;2.90;;;23.90;52.30;;;;;;4163488;28;20068;-51
2021/09/19 08:55:37;;;;;;;20.77;4.13;;;23.90;52.10;;;;;;4164562;28;20072;-49
2021/09/19 08:57:40;;;;;;;12.75;3.47;;;23.90;53.20;;;;;;4146967;28;20066;-50
2021/09/19 08:59:44;;;;;;;9.50;3.13;;;23.70;52.60;;;;;;4147183;28;20034;-51
2021/09/19 09:02:16;;;;;;;9.65;2.95;;;23.80;53.40;;;;;;4164332;28;20088;-52
2021/09/19 09:04:21;;;;;;;11.82;3.05;;;23.80;53.00;;;;;;4163225;28;20054;-52
2021/09/19 09:06:24;;;;;;;14.82;3.38;;;23.80;52.30;;;;;;4163687;28;20097;-59
2021/09/19 09:08:26;;;;;;;6.82;2.75;;;23.80;52.50;;;;;;4163371;28;20105;-58
2021/09/19 09:10:38;;;;;;;7.07;1.92;;;23.80;52.70;;;;;;4164102;28;20068;-59
2021/09/19 09:12:40;;;;;;;6.00;2.25;;;23.80;52.40;;;;;;4164916;28;20064;-47
2021/09/19 09:14:49;;;;;;;7.05;2.33;;;23.80;53.10;;;;;;4166623;28;20065;-47
2021/09/19 09:16:51;;;;;;;6.10;2.15;;;23.90;52.30;;;;;;4166684;28;20447;-49
2021/09/19 09:18:53;;;;;;;6.78;1.92;;;23.90;52.00;;;;;;4165821;28;20072;-47
2021/09/19 09:21:01;;;;;;;5.88;1.67;;;23.90;52.10;;;;;;4166489;28;20062;-47
2021/09/19 09:23:39;;;;;;;8.45;2.67;;;23.90;51.80;;;;;;4166560;28;20102;-49
2021/09/19 09:25:41;;;;;;;4.22;2.33;;;23.90;51.10;;;;;;4166590;28;20038;-52
2021/09/19 09:27:47;;;;;;;2.72;2.13;;;23.90;51.40;;;;;;4166392;28;20041;-49
2021/09/19 09:30:15;;;;;;;3.53;2.00;;;23.90;50.80;;;;;;4166508;28;20045;-53
2021/09/19 09:32:18;;;;;;;4.78;1.98;;;23.90;50.50;;;;;;4165733;28;20041;-59
2021/09/19 09:34:21;;;;;;;6.55;1.63;;;23.90;50.00;;;;;;4166042;28;20105;-54
2021/09/19 09:36:38;;;;;;;4.63;1.40;;;23.80;48.70;;;;;;3816620;28;9999711;-52
2021/09/19 09:38:40;;;;;;;3.03;1.50;;;23.90;49.70;;;;;;4164797;28;20042;-55
2021/09/19 09:40:42;;;;;;;7.47;1.75;;;23.80;49.70;;;;;;4166092;28;20048;-55
2021/09/19 09:43:05;;;;;;;5.00;1.45;;;23.80;49.00;;;;;;4164924;28;20094;-55
2021/09/19 09:45:10;;;;;;;5.95;2.75;;;23.70;48.30;;;;;;4164567;28;20097;-45
2021/09/19 09:47:19;;;;;;;3.88;1.58;;;23.90;49.50;;;;;;4164024;28;20053;-45
2021/09/19 09:49:36;;;;;;;2.55;1.00;;;23.90;49.40;;;;;;4164328;28;20041;-50
2021/09/19 09:51:38;;;;;;;2.03;1.23;;;24.00;49.40;;;;;;4147261;28;20066;-55
2021/09/19 09:53:40;;;;;;;5.60;2.03;;;24.00;49.40;;;;;;4163785;28;20073;-47
2021/09/19 09:55:44;;;;;;;7.38;1.40;;;24.00;48.00;;;;;;4148695;28;20043;-47
2021/09/19 09:58:08;;;;;;;5.70;1.33;;;23.90;48.30;;;;;;4148652;28;20453;-59
2021/09/19 10:00:13;;;;;;;7.30;2.15;;;23.90;47.90;;;;;;4165183;28;20046;-47
2021/09/19 10:02:16;;;;;;;4.47;1.40;;;23.90;47.60;;;;;;4165128;28;20109;-46
2021/09/19 10:04:18;;;;;;;4.57;1.58;;;23.70;48.90;;;;;;4165209;28;20061;-49
2021/09/19 10:06:21;;;;;;;7.07;1.90;;;23.70;48.70;;;;;;4164733;28;20038;-50
2021/09/19 10:08:24;;;;;;;11.65;2.20;;;23.70;48.90;;;;;;4164341;28;20046;-59
2021/09/19 10:10:29;;;;;;;8.40;2.25;;;23.80;48.80;;;;;;4165729;28;20080;-56
2021/09/19 10:12:32;;;;;;;24.40;4.45;;;23.90;49.10;;;;;;4166117;28;20097;-55
2021/09/19 10:14:36;;;;;;;16.10;3.72;;;23.90;48.90;;;;;;4166136;28;20097;-56
2021/09/19 10:16:38;;;;;;;13.05;3.70;;;23.90;47.60;;;;;;4165735;28;20037;-56
2021/09/19 10:18:44;;;;;;;8.27;2.90;;;23.90;48.10;;;;;;4150493;28;20050;-56
2021/09/19 10:20:48;;;;;;;15.60;2.67;;;23.90;48.30;;;;;;4153079;28;20527;-56
2021/09/19 10:23:12;;;;;;;7.53;2.00;;;23.90;47.50;;;;;;4152729;28;20070;-55
2021/09/19 10:25:40;;;;;;;33.45;3.60;;;23.90;48.10;;;;;;4152897;28;20052;-54
2021/09/19 10:27:43;;;;;;;17.80;3.03;;;23.90;48.20;;;;;;4151294;28;20056;-56
2021/09/19 10:29:46;;;;;;;16.98;3.53;;;23.90;48.10;;;;;;4152927;28;20093;-57
2021/09/19 10:31:48;;;;;;;10.25;2.75;;;23.80;47.80;;;;;;4153011;28;20042;-56
2021/09/19 10:34:07;;;;;;;15.50;3.33;;;23.80;47.70;;;;;;4152916;28;20049;-56
2021/09/19 10:36:29;;;;;;;22.80;2.80;;;23.90;48.40;;;;;;4152949;28;20038;-56
2021/09/19 10:38:35;;;;;;;9.45;3.08;;;23.80;48.50;;;;;;4152893;28;20042;-56
2021/09/19 10:40:40;;;;;;;13.38;2.97;;;23.90;47.50;;;;;;4152845;28;20054;-56
2021/09/19 10:42:49;;;;;;;12.43;3.35;;;23.90;46.90;;;;;;4152810;28;20049;-57
2021/09/19 10:44:51;;;;;;;13.85;3.55;;;23.90;47.80;;;;;;4152776;28;20046;-57
2021/09/19 10:47:04;;;;;;;6.60;3.00;;;23.90;46.80;;;;;;4152497;28;20055;-57